sensor_id;sensor_type;location;lat;lon;timestamp;P1;durP1;ratioP1;P2;durP2;ratioP2
2840;SDS011;53423;49.224;12.074;2023-04-02T00:08:19;1.27;;;0.80;;
2840;SDS011;53423;49.224;12.074;2023-04-02T00:10:53;1.43;;;1.10;;
2840;SDS011;53423;49.224;12.074;2023-04-02T00:13:24;1.10;;;0.80;;
2840;SDS011;53423;49.224;12.074;2023-04-02T00:15:59;0.90;;;0.70;;
2840;SDS011;53423;49.224;12.074;2023-04-02T00:18:29;2.33;;;1.30;;
2840;SDS011;53423;49.224;12.074;2023-04-02T00:21:02;1.43;;;1.03;;
2840;SDS011;53423;49.224;12.074;2023-04-02T00:23:37;1.83;;;1.00;;
2840;SDS011;53423;49.224;12.074;2023-04-02T00:26:19;2.33;;;1.10;;
2840;SDS011;53423;49.224;12.074;2023-04-02T00:28:48;1.80;;;0.97;;
2840;SDS011;53423;49.224;12.074;2023-04-02T00:31:18;1.27;;;0.97;;
2840;SDS011;53423;49.224;12.074;2023-04-02T00:33:47;1.30;;;1.10;;
2840;SDS011;53423;49.224;12.074;2023-04-02T00:36:17;2.50;;;1.20;;
2840;SDS011;53423;49.224;12.074;2023-04-02T00:38:47;1.37;;;1.27;;
2840;SDS011;53423;49.224;12.074;2023-04-02T00:41:16;0.93;;;0.73;;
2840;SDS011;53423;49.224;12.074;2023-04-02T00:43:48;1.00;;;0.93;;
2840;SDS011;53423;49.224;12.074;2023-04-02T00:46:21;1.63;;;1.23;;
2840;SDS011;53423;49.224;12.074;2023-04-02T00:48:56;1.00;;;0.80;;
2840;SDS011;53423;49.224;12.074;2023-04-02T00:51:29;1.53;;;1.40;;
2840;SDS011;53423;49.224;12.074;2023-04-02T00:54:01;3.10;;;1.40;;
2840;SDS011;53423;49.224;12.074;2023-04-02T00:56:38;1.47;;;1.37;;
2840;SDS011;53423;49.224;12.074;2023-04-02T00:59:15;4.20;;;1.37;;
2840;SDS011;53423;49.224;12.074;2023-04-02T01:01:51;1.30;;;1.20;;
2840;SDS011;53423;49.224;12.074;2023-04-02T01:04:28;2.10;;;1.10;;
2840;SDS011;53423;49.224;12.074;2023-04-02T01:07:01;1.83;;;1.60;;
2840;SDS011;53423;49.224;12.074;2023-04-02T01:09:36;1.90;;;1.47;;
2840;SDS011;53423;49.224;12.074;2023-04-02T01:12:23;3.20;;;1.60;;
2840;SDS011;53423;49.224;12.074;2023-04-02T01:15:06;1.87;;;1.70;;
2840;SDS011;53423;49.224;12.074;2023-04-02T01:17:41;1.60;;;1.50;;
2840;SDS011;53423;49.224;12.074;2023-04-02T01:20:27;1.60;;;1.50;;
2840;SDS011;53423;49.224;12.074;2023-04-02T01:23:10;1.50;;;1.40;;
2840;SDS011;53423;49.224;12.074;2023-04-02T01:25:43;2.87;;;1.27;;
2840;SDS011;53423;49.224;12.074;2023-04-02T01:28:18;1.90;;;1.80;;
2840;SDS011;53423;49.224;12.074;2023-04-02T01:30:51;3.37;;;1.70;;
2840;SDS011;53423;49.224;12.074;2023-04-02T01:33:22;2.30;;;1.83;;
2840;SDS011;53423;49.224;12.074;2023-04-02T01:35:58;2.73;;;2.10;;
2840;SDS011;53423;49.224;12.074;2023-04-02T01:38:32;2.20;;;2.00;;
2840;SDS011;53423;49.224;12.074;2023-04-02T01:41:07;2.20;;;1.93;;
2840;SDS011;53423;49.224;12.074;2023-04-02T01:43:40;1.73;;;1.63;;
2840;SDS011;53423;49.224;12.074;2023-04-02T01:46:25;1.93;;;1.60;;
2840;SDS011;53423;49.224;12.074;2023-04-02T01:48:54;5.10;;;2.20;;
2840;SDS011;53423;49.224;12.074;2023-04-02T01:51:24;2.17;;;1.60;;
2840;SDS011;53423;49.224;12.074;2023-04-02T01:53:55;2.33;;;1.73;;
2840;SDS011;53423;49.224;12.074;2023-04-02T01:56:26;2.70;;;1.77;;
2840;SDS011;53423;49.224;12.074;2023-04-02T01:58:55;1.47;;;1.37;;
2840;SDS011;53423;49.224;12.074;2023-04-02T02:01:26;2.27;;;1.60;;
2840;SDS011;53423;49.224;12.074;2023-04-02T02:03:58;1.80;;;1.40;;
2840;SDS011;53423;49.224;12.074;2023-04-02T02:06:27;1.73;;;1.33;;
2840;SDS011;53423;49.224;12.074;2023-04-02T02:08:57;2.43;;;1.50;;
2840;SDS011;53423;49.224;12.074;2023-04-02T02:11:29;1.47;;;1.30;;
2840;SDS011;53423;49.224;12.074;2023-04-02T02:14:00;2.27;;;1.30;;
2840;SDS011;53423;49.224;12.074;2023-04-02T02:16:33;3.53;;;1.60;;
2840;SDS011;53423;49.224;12.074;2023-04-02T02:19:10;2.90;;;1.37;;
2840;SDS011;53423;49.224;12.074;2023-04-02T02:21:47;1.93;;;1.30;;
2840;SDS011;53423;49.224;12.074;2023-04-02T02:24:18;1.70;;;1.60;;
2840;SDS011;53423;49.224;12.074;2023-04-02T02:26:49;2.53;;;1.50;;
2840;SDS011;53423;49.224;12.074;2023-04-02T02:29:24;1.83;;;1.40;;
2840;SDS011;53423;49.224;12.074;2023-04-02T02:31:56;2.40;;;1.40;;
2840;SDS011;53423;49.224;12.074;2023-04-02T02:34:28;1.70;;;1.10;;
2840;SDS011;53423;49.224;12.074;2023-04-02T02:37:03;1.43;;;1.33;;
2840;SDS011;53423;49.224;12.074;2023-04-02T02:39:36;1.90;;;1.57;;
2840;SDS011;53423;49.224;12.074;2023-04-02T02:42:09;2.27;;;1.50;;
2840;SDS011;53423;49.224;12.074;2023-04-02T02:44:40;1.50;;;1.40;;
2840;SDS011;53423;49.224;12.074;2023-04-02T02:47:14;1.53;;;1.43;;
2840;SDS011;53423;49.224;12.074;2023-04-02T02:49:46;1.70;;;1.60;;
2840;SDS011;53423;49.224;12.074;2023-04-02T02:52:19;1.33;;;1.33;;
2840;SDS011;53423;49.224;12.074;2023-04-02T02:54:51;3.50;;;1.60;;
2840;SDS011;53423;49.224;12.074;2023-04-02T02:57:22;2.30;;;1.40;;
2840;SDS011;53423;49.224;12.074;2023-04-02T02:59:54;1.50;;;1.20;;
2840;SDS011;53423;49.224;12.074;2023-04-02T03:02:26;3.13;;;1.67;;
2840;SDS011;53423;49.224;12.074;2023-04-02T03:04:55;1.63;;;1.53;;
2840;SDS011;53423;49.224;12.074;2023-04-02T03:07:24;2.60;;;1.63;;
2840;SDS011;53423;49.224;12.074;2023-04-02T03:09:58;1.70;;;1.60;;
2840;SDS011;53423;49.224;12.074;2023-04-02T03:12:36;2.00;;;1.67;;
2840;SDS011;53423;49.224;12.074;2023-04-02T03:15:11;2.17;;;1.47;;
2840;SDS011;53423;49.224;12.074;2023-04-02T03:17:48;2.50;;;1.40;;
2840;SDS011;53423;49.224;12.074;2023-04-02T03:20:20;1.33;;;1.23;;
2840;SDS011;53423;49.224;12.074;2023-04-02T03:22:54;2.00;;;1.23;;
2840;SDS011;53423;49.224;12.074;2023-04-02T03:25:30;2.30;;;1.40;;
2840;SDS011;53423;49.224;12.074;2023-04-02T03:28:06;1.73;;;1.60;;
2840;SDS011;53423;49.224;12.074;2023-04-02T03:30:41;2.70;;;1.67;;
2840;SDS011;53423;49.224;12.074;2023-04-02T03:33:16;2.20;;;1.50;;
2840;SDS011;53423;49.224;12.074;2023-04-02T03:35:52;2.10;;;1.20;;
2840;SDS011;53423;49.224;12.074;2023-04-02T03:38:26;2.73;;;1.53;;
2840;SDS011;53423;49.224;12.074;2023-04-02T03:40:59;1.97;;;1.37;;
2840;SDS011;53423;49.224;12.074;2023-04-02T03:43:30;1.50;;;1.40;;
2840;SDS011;53423;49.224;12.074;2023-04-02T03:46:06;2.63;;;1.30;;
2840;SDS011;53423;49.224;12.074;2023-04-02T03:48:50;2.77;;;1.33;;
2840;SDS011;53423;49.224;12.074;2023-04-02T03:51:22;2.87;;;1.63;;
2840;SDS011;53423;49.224;12.074;2023-04-02T03:53:53;1.53;;;1.43;;
2840;SDS011;53423;49.224;12.074;2023-04-02T03:56:25;1.77;;;1.67;;
2840;SDS011;53423;49.224;12.074;2023-04-02T03:59:01;1.90;;;1.40;;
2840;SDS011;53423;49.224;12.074;2023-04-02T04:01:34;1.53;;;1.40;;
2840;SDS011;53423;49.224;12.074;2023-04-02T04:04:11;3.20;;;1.80;;
2840;SDS011;53423;49.224;12.074;2023-04-02T04:06:44;1.63;;;1.40;;
2840;SDS011;53423;49.224;12.074;2023-04-02T04:09:16;2.47;;;1.70;;
2840;SDS011;53423;49.224;12.074;2023-04-02T04:11:51;1.60;;;1.50;;
2840;SDS011;53423;49.224;12.074;2023-04-02T04:14:26;1.97;;;1.70;;
2840;SDS011;53423;49.224;12.074;2023-04-02T04:16:58;2.90;;;1.70;;
2840;SDS011;53423;49.224;12.074;2023-04-02T04:19:32;2.43;;;1.60;;
2840;SDS011;53423;49.224;12.074;2023-04-02T04:22:09;2.87;;;1.60;;
2840;SDS011;53423;49.224;12.074;2023-04-02T04:24:41;1.53;;;1.43;;
2840;SDS011;53423;49.224;12.074;2023-04-02T04:27:13;2.17;;;1.40;;
2840;SDS011;53423;49.224;12.074;2023-04-02T04:29:49;2.37;;;1.90;;
2840;SDS011;53423;49.224;12.074;2023-04-02T04:32:23;2.27;;;1.73;;
2840;SDS011;53423;49.224;12.074;2023-04-02T04:35:00;1.57;;;1.47;;
2840;SDS011;53423;49.224;12.074;2023-04-02T04:37:34;3.60;;;1.80;;
2840;SDS011;53423;49.224;12.074;2023-04-02T04:40:09;1.60;;;1.50;;
2840;SDS011;53423;49.224;12.074;2023-04-02T04:42:43;2.63;;;2.13;;
2840;SDS011;53423;49.224;12.074;2023-04-02T04:45:16;3.00;;;1.93;;
2840;SDS011;53423;49.224;12.074;2023-04-02T04:47:56;1.70;;;1.60;;
2840;SDS011;53423;49.224;12.074;2023-04-02T04:50:29;2.10;;;1.80;;
2840;SDS011;53423;49.224;12.074;2023-04-02T04:53:05;2.80;;;2.10;;
2840;SDS011;53423;49.224;12.074;2023-04-02T04:55:35;1.90;;;1.70;;
2840;SDS011;53423;49.224;12.074;2023-04-02T04:58:07;3.57;;;2.37;;
2840;SDS011;53423;49.224;12.074;2023-04-02T05:00:47;3.63;;;3.33;;
2840;SDS011;53423;49.224;12.074;2023-04-02T05:03:25;2.77;;;2.57;;
2840;SDS011;53423;49.224;12.074;2023-04-02T05:06:04;3.80;;;2.60;;
2840;SDS011;53423;49.224;12.074;2023-04-02T05:08:38;2.73;;;2.53;;
2840;SDS011;53423;49.224;12.074;2023-04-02T05:11:12;3.30;;;2.50;;
2840;SDS011;53423;49.224;12.074;2023-04-02T05:13:47;3.73;;;2.60;;
2840;SDS011;53423;49.224;12.074;2023-04-02T05:16:20;4.07;;;2.77;;
2840;SDS011;53423;49.224;12.074;2023-04-02T05:18:54;3.10;;;2.80;;
2840;SDS011;53423;49.224;12.074;2023-04-02T05:21:31;3.00;;;2.80;;
2840;SDS011;53423;49.224;12.074;2023-04-02T05:24:15;3.00;;;2.47;;
2840;SDS011;53423;49.224;12.074;2023-04-02T05:27:04;2.90;;;2.60;;
2840;SDS011;53423;49.224;12.074;2023-04-02T05:29:42;2.93;;;2.73;;
2840;SDS011;53423;49.224;12.074;2023-04-02T05:32:18;3.20;;;2.90;;
2840;SDS011;53423;49.224;12.074;2023-04-02T05:34:50;3.30;;;2.97;;
2840;SDS011;53423;49.224;12.074;2023-04-02T05:37:24;3.43;;;3.13;;
2840;SDS011;53423;49.224;12.074;2023-04-02T05:39:56;3.60;;;3.30;;
2840;SDS011;53423;49.224;12.074;2023-04-02T05:42:27;3.50;;;3.10;;
2840;SDS011;53423;49.224;12.074;2023-04-02T05:45:00;3.27;;;3.00;;
2840;SDS011;53423;49.224;12.074;2023-04-02T05:47:35;3.00;;;2.70;;
2840;SDS011;53423;49.224;12.074;2023-04-02T05:50:14;3.20;;;2.90;;
2840;SDS011;53423;49.224;12.074;2023-04-02T05:52:50;3.93;;;3.63;;
2840;SDS011;53423;49.224;12.074;2023-04-02T05:55:26;3.20;;;2.90;;
2840;SDS011;53423;49.224;12.074;2023-04-02T05:58:03;3.23;;;2.93;;
2840;SDS011;53423;49.224;12.074;2023-04-02T06:01:17;5.17;;;2.93;;
2840;SDS011;53423;49.224;12.074;2023-04-02T06:03:52;3.33;;;3.03;;
2840;SDS011;53423;49.224;12.074;2023-04-02T06:06:31;3.20;;;2.90;;
2840;SDS011;53423;49.224;12.074;2023-04-02T06:09:12;3.20;;;2.90;;
2840;SDS011;53423;49.224;12.074;2023-04-02T06:11:45;3.40;;;3.03;;
2840;SDS011;53423;49.224;12.074;2023-04-02T06:14:16;3.20;;;2.90;;
2840;SDS011;53423;49.224;12.074;2023-04-02T06:16:44;3.40;;;3.10;;
2840;SDS011;53423;49.224;12.074;2023-04-02T06:19:14;3.87;;;3.47;;
2840;SDS011;53423;49.224;12.074;2023-04-02T06:21:49;3.67;;;2.90;;
2840;SDS011;53423;49.224;12.074;2023-04-02T06:24:21;3.37;;;3.07;;
2840;SDS011;53423;49.224;12.074;2023-04-02T06:26:52;3.90;;;3.50;;
2840;SDS011;53423;49.224;12.074;2023-04-02T06:29:25;3.00;;;2.80;;
2840;SDS011;53423;49.224;12.074;2023-04-02T06:32:05;3.40;;;3.10;;
2840;SDS011;53423;49.224;12.074;2023-04-02T06:34:35;3.10;;;2.80;;
2840;SDS011;53423;49.224;12.074;2023-04-02T06:37:10;2.90;;;2.70;;
2840;SDS011;53423;49.224;12.074;2023-04-02T06:39:46;2.97;;;2.77;;
2840;SDS011;53423;49.224;12.074;2023-04-02T06:42:16;3.50;;;3.20;;
2840;SDS011;53423;49.224;12.074;2023-04-02T06:44:47;3.00;;;2.77;;
2840;SDS011;53423;49.224;12.074;2023-04-02T06:47:18;4.33;;;3.27;;
2840;SDS011;53423;49.224;12.074;2023-04-02T06:49:56;3.20;;;3.00;;
2840;SDS011;53423;49.224;12.074;2023-04-02T06:52:28;2.97;;;2.73;;
2840;SDS011;53423;49.224;12.074;2023-04-02T06:55:05;2.90;;;2.70;;
2840;SDS011;53423;49.224;12.074;2023-04-02T06:57:48;3.30;;;3.00;;
2840;SDS011;53423;49.224;12.074;2023-04-02T07:00:20;3.43;;;3.07;;
2840;SDS011;53423;49.224;12.074;2023-04-02T07:02:53;3.17;;;2.70;;
2840;SDS011;53423;49.224;12.074;2023-04-02T07:05:22;2.93;;;2.63;;
2840;SDS011;53423;49.224;12.074;2023-04-02T07:07:50;3.27;;;3.00;;
2840;SDS011;53423;49.224;12.074;2023-04-02T07:10:20;2.43;;;2.33;;
2840;SDS011;53423;49.224;12.074;2023-04-02T07:12:48;2.70;;;2.50;;
2840;SDS011;53423;49.224;12.074;2023-04-02T07:15:17;2.33;;;2.17;;
2840;SDS011;53423;49.224;12.074;2023-04-02T07:17:46;2.37;;;2.17;;
2840;SDS011;53423;49.224;12.074;2023-04-02T07:20:23;2.70;;;2.50;;
2840;SDS011;53423;49.224;12.074;2023-04-02T07:22:53;3.23;;;2.93;;
2840;SDS011;53423;49.224;12.074;2023-04-02T07:25:23;2.73;;;2.53;;
2840;SDS011;53423;49.224;12.074;2023-04-02T07:27:52;3.30;;;3.00;;
2840;SDS011;53423;49.224;12.074;2023-04-02T07:30:20;2.93;;;2.73;;
2840;SDS011;53423;49.224;12.074;2023-04-02T07:32:49;3.10;;;2.83;;
2840;SDS011;53423;49.224;12.074;2023-04-02T07:35:17;3.00;;;2.80;;
2840;SDS011;53423;49.224;12.074;2023-04-02T07:37:46;3.10;;;2.90;;
2840;SDS011;53423;49.224;12.074;2023-04-02T07:40:15;3.00;;;2.80;;
2840;SDS011;53423;49.224;12.074;2023-04-02T07:42:47;3.10;;;2.90;;
2840;SDS011;53423;49.224;12.074;2023-04-02T07:45:15;3.27;;;3.07;;
2840;SDS011;53423;49.224;12.074;2023-04-02T07:47:43;2.43;;;2.33;;
2840;SDS011;53423;49.224;12.074;2023-04-02T07:50:12;3.27;;;3.07;;
2840;SDS011;53423;49.224;12.074;2023-04-02T07:52:40;2.90;;;2.70;;
2840;SDS011;53423;49.224;12.074;2023-04-02T07:55:09;3.00;;;2.70;;
2840;SDS011;53423;49.224;12.074;2023-04-02T07:57:38;2.83;;;2.63;;
2840;SDS011;53423;49.224;12.074;2023-04-02T08:00:13;2.33;;;2.13;;
2840;SDS011;53423;49.224;12.074;2023-04-02T08:02:42;3.13;;;2.63;;
2840;SDS011;53423;49.224;12.074;2023-04-02T08:05:10;2.50;;;2.30;;
2840;SDS011;53423;49.224;12.074;2023-04-02T08:07:39;2.40;;;2.20;;
2840;SDS011;53423;49.224;12.074;2023-04-02T08:10:09;2.90;;;2.70;;
2840;SDS011;53423;49.224;12.074;2023-04-02T08:12:38;2.27;;;2.17;;
2840;SDS011;53423;49.224;12.074;2023-04-02T08:15:07;2.43;;;2.30;;
2840;SDS011;53423;49.224;12.074;2023-04-02T08:17:38;2.70;;;2.50;;
2840;SDS011;53423;49.224;12.074;2023-04-02T08:20:06;2.13;;;2.03;;
2840;SDS011;53423;49.224;12.074;2023-04-02T08:22:41;2.50;;;2.27;;
2840;SDS011;53423;49.224;12.074;2023-04-02T08:25:09;2.20;;;2.10;;
2840;SDS011;53423;49.224;12.074;2023-04-02T08:27:37;2.20;;;2.10;;
2840;SDS011;53423;49.224;12.074;2023-04-02T08:30:07;2.07;;;1.93;;
2840;SDS011;53423;49.224;12.074;2023-04-02T08:32:37;1.90;;;1.57;;
2840;SDS011;53423;49.224;12.074;2023-04-02T08:35:07;2.13;;;2.03;;
2840;SDS011;53423;49.224;12.074;2023-04-02T08:37:37;1.70;;;1.60;;
2840;SDS011;53423;49.224;12.074;2023-04-02T08:40:06;1.77;;;1.67;;
2840;SDS011;53423;49.224;12.074;2023-04-02T08:42:45;1.93;;;1.83;;
2840;SDS011;53423;49.224;12.074;2023-04-02T08:45:32;2.33;;;2.17;;
2840;SDS011;53423;49.224;12.074;2023-04-02T08:48:09;1.37;;;1.33;;
2840;SDS011;53423;49.224;12.074;2023-04-02T08:50:39;1.70;;;1.60;;
2840;SDS011;53423;49.224;12.074;2023-04-02T08:53:10;1.70;;;1.60;;
2840;SDS011;53423;49.224;12.074;2023-04-02T08:55:44;1.70;;;1.60;;
2840;SDS011;53423;49.224;12.074;2023-04-02T08:58:24;1.50;;;1.40;;
2840;SDS011;53423;49.224;12.074;2023-04-02T09:01:00;2.37;;;2.17;;
2840;SDS011;53423;49.224;12.074;2023-04-02T09:03:35;6.07;;;1.20;;
2840;SDS011;53423;49.224;12.074;2023-04-02T09:06:08;1.10;;;1.00;;
2840;SDS011;53423;49.224;12.074;2023-04-02T09:08:42;2.43;;;2.07;;
2840;SDS011;53423;49.224;12.074;2023-04-02T09:11:12;3.97;;;3.40;;
2840;SDS011;53423;49.224;12.074;2023-04-02T09:13:47;4.70;;;3.97;;
2840;SDS011;53423;49.224;12.074;2023-04-02T09:16:22;2.70;;;2.50;;
2840;SDS011;53423;49.224;12.074;2023-04-02T09:19:04;3.93;;;3.20;;
2840;SDS011;53423;49.224;12.074;2023-04-02T09:21:54;5.40;;;4.90;;
2840;SDS011;53423;49.224;12.074;2023-04-02T09:24:31;3.10;;;2.90;;
2840;SDS011;53423;49.224;12.074;2023-04-02T09:27:00;2.00;;;1.90;;
2840;SDS011;53423;49.224;12.074;2023-04-02T09:29:34;2.47;;;2.27;;
2840;SDS011;53423;49.224;12.074;2023-04-02T09:32:17;2.53;;;2.33;;
2840;SDS011;53423;49.224;12.074;2023-04-02T09:35:09;1.47;;;1.37;;
2840;SDS011;53423;49.224;12.074;2023-04-02T09:38:10;1.93;;;1.73;;
2840;SDS011;53423;49.224;12.074;2023-04-02T09:40:45;1.30;;;1.20;;
2840;SDS011;53423;49.224;12.074;2023-04-02T09:43:15;2.03;;;1.63;;
2840;SDS011;53423;49.224;12.074;2023-04-02T09:45:53;1.80;;;1.70;;
2840;SDS011;53423;49.224;12.074;2023-04-02T09:48:24;2.67;;;1.90;;
2840;SDS011;53423;49.224;12.074;2023-04-02T09:51:10;0.70;;;0.70;;
2840;SDS011;53423;49.224;12.074;2023-04-02T09:53:40;0.73;;;0.73;;
2840;SDS011;53423;49.224;12.074;2023-04-02T09:56:14;2.03;;;1.20;;
2840;SDS011;53423;49.224;12.074;2023-04-02T09:58:44;2.80;;;1.90;;
2840;SDS011;53423;49.224;12.074;2023-04-02T10:01:22;0.80;;;0.80;;
2840;SDS011;53423;49.224;12.074;2023-04-02T10:03:54;1.87;;;0.90;;
2840;SDS011;53423;49.224;12.074;2023-04-02T10:06:26;2.67;;;1.40;;
2840;SDS011;53423;49.224;12.074;2023-04-02T10:08:55;2.00;;;1.90;;
2840;SDS011;53423;49.224;12.074;2023-04-02T10:11:25;2.50;;;2.20;;
2840;SDS011;53423;49.224;12.074;2023-04-02T10:14:13;2.23;;;2.13;;
2840;SDS011;53423;49.224;12.074;2023-04-02T10:16:46;3.20;;;3.00;;
2840;SDS011;53423;49.224;12.074;2023-04-02T10:19:17;1.87;;;1.77;;
2840;SDS011;53423;49.224;12.074;2023-04-02T10:21:54;2.13;;;1.97;;
2840;SDS011;53423;49.224;12.074;2023-04-02T10:24:25;4.40;;;4.00;;
2840;SDS011;53423;49.224;12.074;2023-04-02T10:26:56;3.40;;;3.10;;
2840;SDS011;53423;49.224;12.074;2023-04-02T10:29:34;2.30;;;2.13;;
2840;SDS011;53423;49.224;12.074;2023-04-02T10:32:10;2.40;;;2.30;;
2840;SDS011;53423;49.224;12.074;2023-04-02T10:34:45;1.40;;;1.30;;
2840;SDS011;53423;49.224;12.074;2023-04-02T10:40:30;1.20;;;1.03;;
2840;SDS011;53423;49.224;12.074;2023-04-02T10:43:15;1.10;;;1.10;;
2840;SDS011;53423;49.224;12.074;2023-04-02T10:45:59;1.60;;;1.50;;
2840;SDS011;53423;49.224;12.074;2023-04-02T10:48:36;2.27;;;2.17;;
2840;SDS011;53423;49.224;12.074;2023-04-02T10:51:11;2.10;;;1.90;;
2840;SDS011;53423;49.224;12.074;2023-04-02T10:53:50;1.50;;;1.40;;
2840;SDS011;53423;49.224;12.074;2023-04-02T10:56:26;2.03;;;1.93;;
2840;SDS011;53423;49.224;12.074;2023-04-02T10:59:12;1.50;;;1.40;;
2840;SDS011;53423;49.224;12.074;2023-04-02T11:01:45;2.63;;;1.80;;
2840;SDS011;53423;49.224;12.074;2023-04-02T11:04:15;1.80;;;1.70;;
2840;SDS011;53423;49.224;12.074;2023-04-02T11:06:47;2.17;;;2.07;;
2840;SDS011;53423;49.224;12.074;2023-04-02T11:09:30;3.00;;;2.10;;
2840;SDS011;53423;49.224;12.074;2023-04-02T11:12:01;1.53;;;1.43;;
2840;SDS011;53423;49.224;12.074;2023-04-02T11:14:32;1.70;;;1.60;;
2840;SDS011;53423;49.224;12.074;2023-04-02T11:17:01;2.40;;;2.20;;
2840;SDS011;53423;49.224;12.074;2023-04-02T11:19:31;2.07;;;1.97;;
2840;SDS011;53423;49.224;12.074;2023-04-02T11:21:59;2.10;;;2.00;;
2840;SDS011;53423;49.224;12.074;2023-04-02T11:24:41;1.80;;;1.70;;
2840;SDS011;53423;49.224;12.074;2023-04-02T11:27:19;1.57;;;1.47;;
2840;SDS011;53423;49.224;12.074;2023-04-02T11:29:51;1.77;;;1.67;;
2840;SDS011;53423;49.224;12.074;2023-04-02T11:32:26;1.57;;;1.47;;
2840;SDS011;53423;49.224;12.074;2023-04-02T11:35:22;1.83;;;1.60;;
2840;SDS011;53423;49.224;12.074;2023-04-02T11:38:46;1.47;;;1.20;;
2840;SDS011;53423;49.224;12.074;2023-04-02T11:44:33;1.33;;;1.20;;
2840;SDS011;53423;49.224;12.074;2023-04-02T11:47:14;1.60;;;1.50;;
2840;SDS011;53423;49.224;12.074;2023-04-02T11:52:30;2.40;;;2.20;;
2840;SDS011;53423;49.224;12.074;2023-04-02T12:00:59;1.50;;;1.40;;
2840;SDS011;53423;49.224;12.074;2023-04-02T12:03:46;1.90;;;1.70;;
2840;SDS011;53423;49.224;12.074;2023-04-02T12:06:26;1.40;;;1.30;;
2840;SDS011;53423;49.224;12.074;2023-04-02T12:09:08;0.90;;;0.90;;
2840;SDS011;53423;49.224;12.074;2023-04-02T12:11:43;1.40;;;1.20;;
2840;SDS011;53423;49.224;12.074;2023-04-02T12:14:30;1.73;;;1.63;;
2840;SDS011;53423;49.224;12.074;2023-04-02T12:17:14;1.70;;;1.60;;
2840;SDS011;53423;49.224;12.074;2023-04-02T12:19:48;2.27;;;2.00;;
2840;SDS011;53423;49.224;12.074;2023-04-02T12:22:17;2.40;;;2.20;;
2840;SDS011;53423;49.224;12.074;2023-04-02T12:24:48;1.70;;;1.60;;
2840;SDS011;53423;49.224;12.074;2023-04-02T12:27:17;3.20;;;2.80;;
2840;SDS011;53423;49.224;12.074;2023-04-02T12:29:48;3.37;;;3.17;;
2840;SDS011;53423;49.224;12.074;2023-04-02T12:32:24;2.00;;;1.90;;
2840;SDS011;53423;49.224;12.074;2023-04-02T12:34:56;1.77;;;1.67;;
2840;SDS011;53423;49.224;12.074;2023-04-02T12:37:27;2.60;;;2.40;;
2840;SDS011;53423;49.224;12.074;2023-04-02T12:39:56;2.60;;;2.40;;
2840;SDS011;53423;49.224;12.074;2023-04-02T12:42:27;2.80;;;2.60;;
2840;SDS011;53423;49.224;12.074;2023-04-02T12:44:57;5.17;;;4.77;;
2840;SDS011;53423;49.224;12.074;2023-04-02T12:47:28;2.50;;;2.40;;
2840;SDS011;53423;49.224;12.074;2023-04-02T12:49:56;1.90;;;1.80;;
2840;SDS011;53423;49.224;12.074;2023-04-02T12:52:27;1.87;;;1.77;;
2840;SDS011;53423;49.224;12.074;2023-04-02T12:54:56;2.00;;;1.90;;
2840;SDS011;53423;49.224;12.074;2023-04-02T12:57:33;1.80;;;1.70;;
2840;SDS011;53423;49.224;12.074;2023-04-02T13:03:06;2.50;;;2.40;;
2840;SDS011;53423;49.224;12.074;2023-04-02T13:05:44;2.00;;;1.90;;
2840;SDS011;53423;49.224;12.074;2023-04-02T13:08:15;2.20;;;2.00;;
2840;SDS011;53423;49.224;12.074;2023-04-02T13:10:45;2.17;;;2.07;;
2840;SDS011;53423;49.224;12.074;2023-04-02T13:13:25;2.30;;;2.20;;
2840;SDS011;53423;49.224;12.074;2023-04-02T13:16:03;3.10;;;2.90;;
2840;SDS011;53423;49.224;12.074;2023-04-02T13:18:36;2.30;;;2.20;;
2840;SDS011;53423;49.224;12.074;2023-04-02T13:21:06;2.70;;;2.50;;
2840;SDS011;53423;49.224;12.074;2023-04-02T13:23:54;2.40;;;2.30;;
2840;SDS011;53423;49.224;12.074;2023-04-02T13:26:22;2.80;;;2.60;;
2840;SDS011;53423;49.224;12.074;2023-04-02T13:28:56;2.60;;;2.50;;
2840;SDS011;53423;49.224;12.074;2023-04-02T13:31:25;2.90;;;2.70;;
2840;SDS011;53423;49.224;12.074;2023-04-02T13:33:55;3.00;;;2.80;;
2840;SDS011;53423;49.224;12.074;2023-04-02T13:36:23;2.67;;;2.57;;
2840;SDS011;53423;49.224;12.074;2023-04-02T13:38:51;3.17;;;2.97;;
2840;SDS011;53423;49.224;12.074;2023-04-02T13:41:19;6.83;;;6.30;;
2840;SDS011;53423;49.224;12.074;2023-04-02T13:43:52;6.33;;;5.83;;
2840;SDS011;53423;49.224;12.074;2023-04-02T13:46:22;10.10;;;9.50;;
2840;SDS011;53423;49.224;12.074;2023-04-02T13:48:52;7.03;;;6.63;;
2840;SDS011;53423;49.224;12.074;2023-04-02T13:51:26;4.40;;;4.10;;
2840;SDS011;53423;49.224;12.074;2023-04-02T13:54:00;3.80;;;3.53;;
2840;SDS011;53423;49.224;12.074;2023-04-02T13:56:29;3.50;;;3.20;;
2840;SDS011;53423;49.224;12.074;2023-04-02T13:58:57;8.17;;;7.10;;
2840;SDS011;53423;49.224;12.074;2023-04-02T14:01:25;6.13;;;5.53;;
2840;SDS011;53423;49.224;12.074;2023-04-02T14:03:56;6.97;;;6.37;;
2840;SDS011;53423;49.224;12.074;2023-04-02T14:06:28;8.30;;;7.60;;
2840;SDS011;53423;49.224;12.074;2023-04-02T14:09:18;3.87;;;3.57;;
2840;SDS011;53423;49.224;12.074;2023-04-02T14:11:53;2.87;;;2.70;;
2840;SDS011;53423;49.224;12.074;2023-04-02T14:14:31;3.30;;;3.10;;
2840;SDS011;53423;49.224;12.074;2023-04-02T14:17:17;3.40;;;3.20;;
2840;SDS011;53423;49.224;12.074;2023-04-02T14:23:03;3.30;;;3.10;;
2840;SDS011;53423;49.224;12.074;2023-04-02T14:25:43;4.13;;;3.83;;
2840;SDS011;53423;49.224;12.074;2023-04-02T14:28:22;3.73;;;3.47;;
2840;SDS011;53423;49.224;12.074;2023-04-02T14:31:05;3.87;;;3.63;;
2840;SDS011;53423;49.224;12.074;2023-04-02T14:33:43;6.47;;;5.83;;
2840;SDS011;53423;49.224;12.074;2023-04-02T14:36:21;10.77;;;9.10;;
2840;SDS011;53423;49.224;12.074;2023-04-02T14:38:55;12.27;;;10.43;;
2840;SDS011;53423;49.224;12.074;2023-04-02T14:41:31;9.60;;;8.30;;
2840;SDS011;53423;49.224;12.074;2023-04-02T14:44:06;10.10;;;7.63;;
2840;SDS011;53423;49.224;12.074;2023-04-02T14:46:37;5.53;;;5.03;;
2840;SDS011;53423;49.224;12.074;2023-04-02T14:49:11;3.20;;;3.00;;
2840;SDS011;53423;49.224;12.074;2023-04-02T14:51:49;3.30;;;3.10;;
2840;SDS011;53423;49.224;12.074;2023-04-02T14:54:26;3.67;;;3.40;;
2840;SDS011;53423;49.224;12.074;2023-04-02T14:56:59;3.03;;;2.83;;
2840;SDS011;53423;49.224;12.074;2023-04-02T14:59:33;2.93;;;2.73;;
2840;SDS011;53423;49.224;12.074;2023-04-02T15:02:06;3.53;;;3.30;;
2840;SDS011;53423;49.224;12.074;2023-04-02T15:04:44;3.50;;;3.20;;
2840;SDS011;53423;49.224;12.074;2023-04-02T15:07:18;2.87;;;2.70;;
2840;SDS011;53423;49.224;12.074;2023-04-02T15:09:52;2.27;;;2.17;;
2840;SDS011;53423;49.224;12.074;2023-04-02T15:12:29;2.77;;;2.57;;
2840;SDS011;53423;49.224;12.074;2023-04-02T15:15:01;2.70;;;2.50;;
2840;SDS011;53423;49.224;12.074;2023-04-02T15:17:34;2.30;;;2.10;;
2840;SDS011;53423;49.224;12.074;2023-04-02T15:20:05;2.07;;;1.97;;
2840;SDS011;53423;49.224;12.074;2023-04-02T15:22:40;2.80;;;2.60;;
2840;SDS011;53423;49.224;12.074;2023-04-02T15:25:19;2.60;;;2.40;;
2840;SDS011;53423;49.224;12.074;2023-04-02T15:27:59;2.57;;;2.27;;
2840;SDS011;53423;49.224;12.074;2023-04-02T15:30:35;2.20;;;2.10;;
2840;SDS011;53423;49.224;12.074;2023-04-02T15:36:21;5.63;;;4.70;;
2840;SDS011;53423;49.224;12.074;2023-04-02T15:39:00;4.40;;;4.00;;
2840;SDS011;53423;49.224;12.074;2023-04-02T15:41:40;3.70;;;3.40;;
2840;SDS011;53423;49.224;12.074;2023-04-02T15:44:13;2.40;;;2.30;;
2840;SDS011;53423;49.224;12.074;2023-04-02T15:46:44;2.17;;;2.07;;
2840;SDS011;53423;49.224;12.074;2023-04-02T15:49:26;2.70;;;2.50;;
2840;SDS011;53423;49.224;12.074;2023-04-02T15:52:07;2.60;;;2.40;;
2840;SDS011;53423;49.224;12.074;2023-04-02T15:54:45;3.23;;;2.23;;
2840;SDS011;53423;49.224;12.074;2023-04-02T15:57:27;3.17;;;2.87;;
2840;SDS011;53423;49.224;12.074;2023-04-02T16:00:16;2.43;;;2.33;;
2840;SDS011;53423;49.224;12.074;2023-04-02T16:02:55;2.63;;;2.43;;